Time;durP1;ratioP1;P1;durP2;ratioP2;P2;SDS_P1;SDS_P2;PMS_P1;PMS_P2;Temp;Humidity;BMP_temperature;BMP_pressure;BME280_temperature;BME280_humidity;BME280_pressure;Samples;Min_cycle;Max_cycle;Signal;HPM_P1;HPM_P2
2022/11/10 00:01:09;;;;;;;8.90;2.40;;;9.10;99.90;;;;;;5044565;28;20045;-47
2022/11/10 00:03:36;;;;;;;11.05;2.30;;;9.10;99.90;;;;;;5050873;28;20043;-45
2022/11/10 00:06:03;;;;;;;11.73;2.10;;;9.10;99.90;;;;;;5051982;28;20045;-46
2022/11/10 00:08:29;;;;;;;15.20;2.80;;;9.10;99.90;;;;;;5047934;28;20048;-47
2022/11/10 00:10:57;;;;;;;8.82;2.05;;;9.00;99.90;;;;;;5047950;28;20116;-41
2022/11/10 00:13:31;;;;;;;8.07;2.35;;;9.00;99.90;;;;;;5051311;28;20493;-41
2022/11/10 00:18:46;;;;;;;12.68;2.40;;;9.00;99.90;;;;;;5049243;28;20056;-41
2022/11/10 00:21:14;;;;;;;11.27;2.55;;;9.00;99.90;;;;;;5050565;28;20467;-40
2022/11/10 00:23:40;;;;;;;16.50;2.42;;;9.00;99.90;;;;;;5050474;28;20067;-44
2022/11/10 00:26:17;;;;;;;12.90;1.98;;;9.00;99.90;;;;;;5052289;28;20044;-44
2022/11/10 00:28:44;;;;;;;12.68;3.58;;;9.00;99.90;;;;;;5049387;28;20055;-47
2022/11/10 00:31:10;;;;;;;7.75;2.30;;;9.00;99.90;;;;;;5049813;28;20044;-44
2022/11/10 00:33:41;;;;;;;6.93;2.15;;;9.00;99.90;;;;;;5049954;28;20290;-47
2022/11/10 00:36:06;;;;;;;12.30;2.53;;;9.00;99.90;;;;;;5051892;28;20040;-44
2022/11/10 00:38:32;;;;;;;12.30;2.75;;;9.00;99.90;;;;;;5052398;28;20509;-44
2022/11/10 00:40:59;;;;;;;10.02;2.05;;;9.00;99.90;;;;;;5050991;28;20091;-44
2022/11/10 00:43:25;;;;;;;17.05;3.53;;;9.00;99.90;;;;;;5051347;28;20053;-44
2022/11/10 00:45:51;;;;;;;9.82;2.33;;;9.00;99.90;;;;;;5051457;28;20523;-47
2022/11/10 00:48:16;;;;;;;16.52;3.72;;;9.10;99.90;;;;;;5049881;28;20037;-44
2022/11/10 00:50:42;;;;;;;10.50;2.30;;;9.00;99.90;;;;;;5049987;28;20049;-44
2022/11/10 00:53:08;;;;;;;9.90;2.30;;;9.00;99.90;;;;;;5051161;28;20029;-45
2022/11/10 00:55:37;;;;;;;14.77;2.90;;;9.00;99.90;;;;;;5050010;28;20056;-45
2022/11/10 00:58:02;;;;;;;15.82;2.45;;;9.00;99.90;;;;;;5050569;28;20043;-40
2022/11/10 01:00:28;;;;;;;11.50;2.30;;;8.90;99.90;;;;;;5050914;28;20112;-46
2022/11/10 01:02:54;;;;;;;12.45;2.03;;;8.90;99.90;;;;;;5049973;28;20029;-44
2022/11/10 01:05:20;;;;;;;13.15;3.03;;;9.00;99.90;;;;;;5050651;28;20036;-43
2022/11/10 01:07:46;;;;;;;9.57;2.28;;;9.00;99.90;;;;;;5049919;28;20122;-42
2022/11/10 01:10:12;;;;;;;14.40;2.25;;;8.90;99.90;;;;;;5050305;28;20036;-46
2022/11/10 01:12:37;;;;;;;9.82;2.30;;;8.90;99.90;;;;;;5049778;28;20046;-44
2022/11/10 01:15:04;;;;;;;8.10;2.17;;;8.90;99.90;;;;;;5048980;28;20490;-46
2022/11/10 01:17:30;;;;;;;10.30;2.03;;;8.90;99.90;;;;;;5046740;28;20115;-43
2022/11/10 01:19:55;;;;;;;6.43;1.67;;;8.90;99.90;;;;;;5046247;28;20194;-48
2022/11/10 01:22:21;;;;;;;9.55;2.33;;;8.90;99.90;;;;;;5047680;28;20037;-47
2022/11/10 01:24:47;;;;;;;8.20;1.80;;;8.90;99.90;;;;;;5056080;28;20509;-45
2022/11/10 01:27:12;;;;;;;9.80;2.50;;;8.90;99.90;;;;;;5050142;28;20506;-40
2022/11/10 01:29:38;;;;;;;7.35;1.60;;;8.90;99.90;;;;;;5047927;28;20037;-43
2022/11/10 01:32:04;;;;;;;6.13;1.45;;;8.90;99.90;;;;;;5049776;28;20044;-45
2022/11/10 01:34:29;;;;;;;8.07;2.28;;;8.90;99.90;;;;;;5051490;28;20037;-45
2022/11/10 01:36:55;;;;;;;6.57;1.60;;;8.90;99.90;;;;;;5047430;28;20032;-45
2022/11/10 01:39:21;;;;;;;6.57;1.13;;;8.90;99.90;;;;;;5042159;28;20120;-41
2022/11/10 01:41:46;;;;;;;5.68;1.25;;;9.10;99.90;;;;;;5051033;28;20045;-47
2022/11/10 01:44:18;;;;;;;7.70;2.10;;;9.10;99.90;;;;;;5058682;28;20036;-46
2022/11/10 01:46:43;;;;;;;5.60;1.63;;;9.10;99.90;;;;;;5050620;28;20039;-45
2022/11/10 01:49:10;;;;;;;9.65;1.35;;;9.20;99.90;;;;;;5046008;28;20044;-47
2022/11/10 01:51:46;;;;;;;9.75;1.58;;;9.20;99.90;;;;;;5049023;28;20087;-43
2022/11/10 01:54:20;;;;;;;16.02;3.40;;;9.30;99.90;;;;;;5050861;28;20553;-44
2022/11/10 01:56:50;;;;;;;14.35;2.45;;;9.30;99.90;;;;;;5054887;28;21560;-43
2022/11/10 01:59:21;;;;;;;12.43;2.92;;;9.40;99.90;;;;;;5046862;28;20048;-46
2022/11/10 02:01:49;;;;;;;11.48;2.42;;;9.40;99.90;;;;;;5044514;28;20052;-45
2022/11/10 02:04:17;;;;;;;12.27;2.53;;;9.40;99.90;;;;;;5047404;28;20115;-45
2022/11/10 02:06:44;;;;;;;11.73;2.65;;;9.40;99.90;;;;;;5050241;28;20592;-42
2022/11/10 02:09:10;;;;;;;10.68;3.13;;;9.40;99.90;;;;;;5041404;28;20095;-46
2022/11/10 02:11:39;;;;;;;17.23;2.70;;;9.40;99.90;;;;;;5050741;28;20033;-47
2022/11/10 02:14:05;;;;;;;11.90;3.17;;;9.40;99.90;;;;;;5043713;28;20348;-46
2022/11/10 02:16:31;;;;;;;16.70;3.60;;;9.40;99.90;;;;;;5044372;28;20498;-44
2022/11/10 02:18:56;;;;;;;15.88;3.53;;;9.40;99.90;;;;;;5051414;28;20552;-41
2022/11/10 02:21:22;;;;;;;13.75;3.30;;;9.40;99.90;;;;;;5050213;28;20041;-43
2022/11/10 02:23:50;;;;;;;9.60;3.25;;;9.40;99.90;;;;;;5048327;28;20072;-45
2022/11/10 02:26:26;;;;;;;10.90;3.03;;;9.40;99.90;;;;;;5049690;28;20502;-44
2022/11/10 02:28:52;;;;;;;15.98;3.50;;;9.40;99.90;;;;;;5046502;28;20041;-46
2022/11/10 02:31:18;;;;;;;11.70;3.63;;;9.40;99.90;;;;;;5045827;28;20091;-41
2022/11/10 02:33:43;;;;;;;13.55;3.75;;;9.40;99.90;;;;;;5048091;28;20064;-43
2022/11/10 02:36:09;;;;;;;10.60;3.13;;;9.40;99.90;;;;;;5050156;28;20926;-45
2022/11/10 02:38:35;;;;;;;15.90;3.50;;;9.30;99.90;;;;;;5045628;28;20052;-43
2022/11/10 02:41:00;;;;;;;16.60;4.40;;;9.30;99.90;;;;;;5048003;28;20506;-42
2022/11/10 02:43:27;;;;;;;16.45;4.20;;;9.30;99.90;;;;;;5051048;28;20045;-47
2022/11/10 02:45:52;;;;;;;12.05;3.53;;;9.30;99.90;;;;;;5048484;28;20045;-46
2022/11/10 02:48:19;;;;;;;15.35;3.78;;;9.30;99.90;;;;;;5046897;28;20033;-45
2022/11/10 02:50:44;;;;;;;14.15;3.78;;;9.30;99.90;;;;;;5050606;28;20053;-46
2022/11/10 02:53:10;;;;;;;13.98;3.63;;;9.30;99.90;;;;;;5046596;28;20102;-47
2022/11/10 02:55:36;;;;;;;11.23;3.33;;;9.30;99.90;;;;;;5045765;28;20072;-44
2022/11/10 02:58:01;;;;;;;15.10;3.38;;;9.30;99.90;;;;;;5046528;28;20037;-47
2022/11/10 03:00:27;;;;;;;12.63;3.88;;;9.30;99.90;;;;;;5047339;28;20301;-47
2022/11/10 03:02:56;;;;;;;14.45;3.90;;;9.30;99.90;;;;;;5049009;28;20055;-42
2022/11/10 03:05:23;;;;;;;10.80;3.65;;;9.30;99.90;;;;;;5050140;28;20037;-47
2022/11/10 03:07:57;;;;;;;10.98;3.28;;;9.30;99.90;;;;;;5047106;28;20103;-48
2022/11/10 03:10:23;;;;;;;15.57;4.47;;;9.30;99.90;;;;;;5046334;28;20029;-39
2022/11/10 03:12:53;;;;;;;19.10;3.97;;;9.30;99.90;;;;;;5045308;28;20025;-46
2022/11/10 03:15:19;;;;;;;16.60;3.40;;;9.30;99.90;;;;;;5048439;28;20037;-42
2022/11/10 03:17:45;;;;;;;14.82;4.00;;;9.20;99.90;;;;;;5043536;28;20044;-46
2022/11/10 03:20:10;;;;;;;10.60;3.47;;;9.20;99.90;;;;;;5039251;28;20083;-39
2022/11/10 03:22:36;;;;;;;14.15;3.45;;;9.20;99.90;;;;;;5053099;28;20067;-43
2022/11/10 03:25:02;;;;;;;12.15;3.20;;;9.20;99.90;;;;;;5046035;28;20124;-41
2022/11/10 03:27:27;;;;;;;16.08;3.50;;;9.20;99.90;;;;;;5044626;28;20053;-45
2022/11/10 03:29:53;;;;;;;15.32;4.25;;;9.10;99.90;;;;;;5051767;28;20111;-42
2022/11/10 03:32:19;;;;;;;10.73;3.00;;;9.10;99.90;;;;;;5047643;28;20482;-44
2022/11/10 03:34:44;;;;;;;15.38;4.32;;;9.10;99.90;;;;;;5048406;28;20037;-44
2022/11/10 03:37:10;;;;;;;15.55;3.55;;;9.10;99.90;;;;;;5046683;28;20036;-44
2022/11/10 03:39:35;;;;;;;12.80;3.35;;;9.10;99.90;;;;;;5040535;28;20029;-46
2022/11/10 03:42:01;;;;;;;17.38;3.22;;;9.10;99.90;;;;;;5048283;28;20439;-47
2022/11/10 03:44:27;;;;;;;17.33;3.25;;;9.10;99.90;;;;;;5054301;28;20028;-41
2022/11/10 03:46:52;;;;;;;16.60;3.58;;;9.10;99.90;;;;;;5050070;28;20053;-44
2022/11/10 03:49:18;;;;;;;10.27;3.78;;;9.10;99.90;;;;;;5059832;28;20045;-46
2022/11/10 03:51:44;;;;;;;17.83;3.42;;;9.10;99.90;;;;;;5052537;28;20073;-45
2022/11/10 03:54:09;;;;;;;13.70;4.35;;;9.10;99.90;;;;;;5052212;28;20036;-47
2022/11/10 03:56:35;;;;;;;10.57;3.90;;;9.20;99.90;;;;;;5050036;28;20037;-45
2022/11/10 03:59:00;;;;;;;13.75;3.45;;;9.20;99.90;;;;;;5046826;28;20448;-50
2022/11/10 04:01:26;;;;;;;11.15;3.40;;;9.20;99.90;;;;;;5048447;28;20490;-44
2022/11/10 04:03:52;;;;;;;14.35;3.20;;;9.20;99.90;;;;;;5052485;28;20037;-41
2022/11/10 04:09:03;;;;;;;18.45;3.92;;;9.20;99.90;;;;;;5050394;28;20490;-40
2022/11/10 04:17:00;;;;;;;10.60;3.60;;;9.20;99.90;;;;;;5049314;28;20052;-44
2022/11/10 04:19:26;;;;;;;13.15;3.60;;;9.20;99.90;;;;;;5049374;28;20056;-46
2022/11/10 04:21:51;;;;;;;15.52;4.38;;;9.20;99.90;;;;;;5051699;28;20048;-45
2022/11/10 04:24:17;;;;;;;11.82;4.00;;;9.20;99.90;;;;;;5046013;28;20171;-43
2022/11/10 04:26:44;;;;;;;14.23;4.00;;;9.20;99.90;;;;;;5050037;28;20041;-47
2022/11/10 04:29:11;;;;;;;12.40;4.07;;;9.20;99.90;;;;;;5052879;28;20041;-45
2022/11/10 04:31:41;;;;;;;15.43;4.35;;;9.20;99.90;;;;;;5044467;28;20038;-46
2022/11/10 04:34:09;;;;;;;12.57;4.00;;;9.20;99.90;;;;;;5045394;28;20041;-48
2022/11/10 04:36:37;;;;;;;18.73;4.32;;;9.20;99.90;;;;;;5046004;28;20401;-45
2022/11/10 04:39:04;;;;;;;18.20;4.45;;;9.20;99.90;;;;;;5046835;28;20041;-42
2022/11/10 04:41:30;;;;;;;17.83;5.88;;;9.20;99.90;;;;;;5049561;28;20160;-42
2022/11/10 04:43:56;;;;;;;15.43;3.92;;;9.20;99.90;;;;;;5049335;28;20041;-45
2022/11/10 04:46:26;;;;;;;19.85;4.60;;;9.20;99.90;;;;;;5052952;28;20033;-49
2022/11/10 04:48:53;;;;;;;14.93;4.80;;;9.30;99.90;;;;;;5045190;28;20662;-45
2022/11/10 04:51:21;;;;;;;11.32;4.10;;;9.30;99.90;;;;;;5048987;28;20037;-46
2022/11/10 04:53:47;;;;;;;14.90;5.25;;;9.30;99.90;;;;;;5048833;28;20080;-46
2022/11/10 04:56:21;;;;;;;18.80;4.60;;;9.30;99.90;;;;;;5050066;28;20490;-46
2022/11/10 04:58:47;;;;;;;16.00;6.00;;;9.30;99.90;;;;;;5048679;28;20401;-46
2022/11/10 05:01:17;;;;;;;17.45;5.05;;;9.30;99.90;;;;;;5049893;28;20545;-41
2022/11/10 05:03:43;;;;;;;19.25;5.70;;;9.30;99.90;;;;;;5038641;28;20528;-45
2022/11/10 05:06:09;;;;;;;15.82;4.90;;;9.30;99.90;;;;;;5049914;28;20052;-45
2022/11/10 05:08:37;;;;;;;19.88;5.40;;;9.30;99.90;;;;;;5053319;28;20103;-41
2022/11/10 05:11:03;;;;;;;14.43;4.57;;;9.20;99.90;;;;;;5050527;28;20437;-45
2022/11/10 05:13:29;;;;;;;16.38;4.82;;;9.20;99.90;;;;;;5050205;28;20406;-42
2022/11/10 05:15:55;;;;;;;15.20;4.53;;;9.20;99.90;;;;;;5049583;28;20040;-45
2022/11/10 05:18:21;;;;;;;17.58;4.53;;;9.20;99.90;;;;;;5047457;28;20098;-46
2022/11/10 05:20:46;;;;;;;15.80;4.18;;;9.20;99.90;;;;;;5049841;28;20045;-44
2022/11/10 05:25:56;;;;;;;14.27;4.88;;;9.20;99.90;;;;;;5049697;28;20536;-46
2022/11/10 05:28:22;;;;;;;22.85;4.38;;;9.30;99.90;;;;;;5048185;28;20045;-46
2022/11/10 05:30:47;;;;;;;15.50;4.10;;;9.20;99.90;;;;;;5049363;28;20049;-46
2022/11/10 05:33:13;;;;;;;15.70;5.65;;;9.20;99.90;;;;;;5047895;28;20065;-42
2022/11/10 05:35:39;;;;;;;15.35;4.15;;;9.30;99.90;;;;;;5048143;28;20071;-43
2022/11/10 05:38:05;;;;;;;15.68;4.80;;;9.20;99.90;;;;;;5049822;28;20044;-44
2022/11/10 05:40:32;;;;;;;20.75;4.97;;;9.30;99.90;;;;;;5047234;28;20596;-43
2022/11/10 05:42:57;;;;;;;17.02;4.05;;;9.20;99.90;;;;;;5052295;28;20036;-42
2022/11/10 05:45:26;;;;;;;13.43;4.15;;;9.20;99.90;;;;;;5047720;28;20047;-47
2022/11/10 05:47:53;;;;;;;13.68;3.58;;;9.20;99.90;;;;;;5045435;28;20041;-39
2022/11/10 05:50:20;;;;;;;18.92;4.22;;;9.20;99.90;;;;;;5046629;28;20120;-47
2022/11/10 05:52:51;;;;;;;14.60;4.07;;;9.20;99.90;;;;;;5049174;28;20033;-45
2022/11/10 05:55:20;;;;;;;15.93;4.43;;;9.10;99.90;;;;;;5047400;28;20128;-44
2022/11/10 05:57:48;;;;;;;21.90;4.38;;;9.10;99.90;;;;;;5047783;28;20041;-41
2022/11/10 06:00:16;;;;;;;13.77;3.53;;;9.10;99.90;;;;;;5046714;28;20040;-47
2022/11/10 06:02:42;;;;;;;14.50;4.05;;;9.10;99.90;;;;;;5044247;28;20520;-43
2022/11/10 06:05:09;;;;;;;12.65;3.17;;;9.10;99.90;;;;;;5042356;28;20032;-44
2022/11/10 06:07:36;;;;;;;16.25;4.78;;;9.10;99.90;;;;;;5044435;28;20044;-45
2022/11/10 06:10:02;;;;;;;20.83;4.75;;;9.10;99.90;;;;;;5045855;28;20095;-41
2022/11/10 06:12:29;;;;;;;19.05;5.38;;;9.00;99.90;;;;;;5048633;28;20048;-45
2022/11/10 06:14:57;;;;;;;20.30;5.30;;;9.00;99.90;;;;;;5045639;28;20041;-42
2022/11/10 06:17:24;;;;;;;16.05;5.20;;;9.00;99.90;;;;;;5048230;28;20116;-46
2022/11/10 06:19:50;;;;;;;12.52;3.97;;;8.90;99.90;;;;;;5049676;28;20573;-45
2022/11/10 06:22:15;;;;;;;13.23;5.32;;;8.90;99.90;;;;;;5048221;28;20107;-45
2022/11/10 06:24:41;;;;;;;15.13;4.72;;;8.90;99.90;;;;;;5051720;28;20032;-45
2022/11/10 06:27:07;;;;;;;20.83;5.35;;;8.90;99.90;;;;;;5047419;28;20114;-46
2022/11/10 06:29:32;;;;;;;14.57;4.22;;;8.90;99.90;;;;;;5044400;28;20103;-46
2022/11/10 06:31:58;;;;;;;29.85;5.35;;;9.00;99.90;;;;;;5047893;28;20486;-43
2022/11/10 06:34:23;;;;;;;27.83;6.15;;;9.00;99.90;;;;;;5049795;28;20044;-44
2022/11/10 06:36:49;;;;;;;19.65;5.57;;;9.00;99.90;;;;;;5049217;28;20036;-46
2022/11/10 06:39:15;;;;;;;14.50;5.35;;;9.00;99.90;;;;;;5045464;28;21547;-44
2022/11/10 06:41:40;;;;;;;21.58;5.47;;;9.10;99.90;;;;;;5044536;28;20033;-42
2022/11/10 06:44:06;;;;;;;20.08;6.25;;;9.10;99.90;;;;;;5049443;28;20482;-43
2022/11/10 06:46:32;;;;;;;18.13;5.57;;;9.10;99.90;;;;;;5045319;28;20041;-41
2022/11/10 06:48:57;;;;;;;17.15;5.95;;;9.10;99.90;;;;;;5043776;28;20565;-43
2022/11/10 06:51:23;;;;;;;19.15;6.22;;;9.10;99.90;;;;;;5039862;28;20402;-46
2022/11/10 06:53:49;;;;;;;19.58;5.60;;;9.10;99.90;;;;;;5049322;28;20037;-43
2022/11/10 06:56:14;;;;;;;14.43;5.90;;;9.10;99.90;;;;;;5050505;28;20045;-37
2022/11/10 06:58:40;;;;;;;19.40;6.38;;;9.10;99.90;;;;;;5050632;28;20041;-39
2022/11/10 07:01:05;;;;;;;17.00;6.13;;;9.10;99.90;;;;;;5040932;28;20033;-39
2022/11/10 07:03:31;;;;;;;21.63;6.13;;;9.10;99.90;;;;;;5047678;28;20115;-37
2022/11/10 07:05:57;;;;;;;20.63;5.70;;;9.10;99.90;;;;;;5054356;28;20029;-37
2022/11/10 07:08:23;;;;;;;14.32;5.32;;;9.10;99.90;;;;;;5043351;28;20479;-36
2022/11/10 07:10:53;;;;;;;21.52;6.47;;;9.10;99.90;;;;;;5040056;28;20060;-36
2022/11/10 07:13:20;;;;;;;20.63;6.53;;;9.10;99.90;;;;;;5053403;28;20033;-38
2022/11/10 07:15:46;;;;;;;21.42;6.10;;;9.10;99.90;;;;;;5055285;28;20133;-38
2022/11/10 07:18:12;;;;;;;12.13;3.97;;;9.10;99.90;;;;;;5052789;28;20037;-38
2022/11/10 07:20:38;;;;;;;19.02;6.15;;;9.10;99.90;;;;;;5051200;28;20499;-38
2022/11/10 07:23:06;;;;;;;15.60;5.68;;;9.10;99.90;;;;;;5053393;28;20128;-37
2022/11/10 07:25:34;;;;;;;16.55;5.40;;;9.20;99.90;;;;;;5051990;28;20112;-38
2022/11/10 07:28:02;;;;;;;23.38;6.60;;;9.20;99.90;;;;;;5050243;28;20563;-38
2022/11/10 07:30:30;;;;;;;19.35;5.90;;;9.20;99.90;;;;;;5048877;28;20049;-38
2022/11/10 07:33:13;;;;;;;15.32;5.50;;;9.20;99.90;;;;;;5049118;28;20286;-38
2022/11/10 07:35:38;;;;;;;12.02;4.75;;;9.30;99.90;;;;;;5035274;28;20049;-38
2022/11/10 07:38:07;;;;;;;16.23;5.70;;;9.30;99.90;;;;;;5055505;28;20387;-38
2022/11/10 07:40:33;;;;;;;17.33;6.07;;;9.30;99.90;;;;;;5053142;28;20057;-38
2022/11/10 07:42:58;;;;;;;15.82;5.60;;;9.30;99.90;;;;;;5054847;28;20091;-38
2022/11/10 07:45:25;;;;;;;16.25;5.53;;;9.30;99.90;;;;;;5052479;28;20045;-37
2022/11/10 07:47:50;;;;;;;22.40;6.82;;;9.30;99.90;;;;;;5053134;28;20529;-38
2022/11/10 07:50:17;;;;;;;19.67;5.50;;;9.30;99.90;;;;;;5054300;28;20048;-37
2022/11/10 07:52:42;;;;;;;14.15;4.90;;;9.30;99.90;;;;;;5056730;28;20462;-37
2022/11/10 07:55:08;;;;;;;19.35;5.40;;;9.40;99.90;;;;;;5054430;28;20056;-37
2022/11/10 07:57:34;;;;;;;18.98;5.22;;;9.40;99.90;;;;;;5053233;28;20037;-37
2022/11/10 08:00:00;;;;;;;15.55;4.97;;;9.50;99.90;;;;;;5046026;28;20036;-38
2022/11/10 08:02:26;;;;;;;13.02;4.40;;;9.60;99.90;;;;;;5052845;28;20053;-38
2022/11/10 08:04:51;;;;;;;16.63;4.75;;;9.70;99.90;;;;;;5051099;28;20079;-38
2022/11/10 08:07:17;;;;;;;17.50;4.35;;;9.70;99.90;;;;;;5052954;28;20071;-38
2022/11/10 08:09:43;;;;;;;14.75;4.28;;;9.80;99.90;;;;;;5046254;28;20494;-39
2022/11/10 08:12:09;;;;;;;16.88;4.47;;;9.90;99.90;;;;;;5052476;28;20029;-36
2022/11/10 08:14:35;;;;;;;11.05;3.67;;;9.90;99.90;;;;;;5053720;28;20036;-37
2022/11/10 08:17:00;;;;;;;9.45;3.20;;;10.00;99.90;;;;;;5052948;28;20040;-40
2022/11/10 08:19:26;;;;;;;19.58;4.60;;;10.10;99.90;;;;;;5050801;28;20045;-44
2022/11/10 08:21:52;;;;;;;13.85;3.70;;;10.20;99.90;;;;;;5054376;28;20055;-45
2022/11/10 08:24:17;;;;;;;17.25;3.80;;;10.30;99.90;;;;;;5053306;28;20043;-41
2022/11/10 08:26:43;;;;;;;18.48;4.53;;;10.40;99.90;;;;;;5053622;28;20155;-41
2022/11/10 08:29:09;;;;;;;18.80;4.47;;;10.50;99.90;;;;;;5051342;28;20490;-43
2022/11/10 08:31:36;;;;;;;13.55;3.42;;;10.60;99.90;;;;;;5046965;28;21065;-40
2022/11/10 08:34:02;;;;;;;15.30;3.80;;;10.70;99.90;;;;;;5050231;28;20041;-38
2022/11/10 08:36:28;;;;;;;16.15;3.50;;;10.70;99.90;;;;;;5047297;28;20036;-42
2022/11/10 08:38:53;;;;;;;14.07;3.75;;;10.80;99.90;;;;;;5051159;28;20391;-40
2022/11/10 08:41:19;;;;;;;13.57;3.53;;;10.90;99.90;;;;;;5049630;28;20040;-54
2022/11/10 08:43:45;;;;;;;14.18;3.20;;;11.00;99.90;;;;;;5053981;28;20409;-41
2022/11/10 08:46:10;;;;;;;9.50;2.55;;;11.00;99.90;;;;;;5054947;28;20449;-41
2022/11/10 08:48:36;;;;;;;13.98;4.28;;;11.00;99.90;;;;;;5050607;28;20129;-44
2022/11/10 08:51:02;;;;;;;12.82;3.92;;;11.00;99.90;;;;;;5053968;28;20043;-41
2022/11/10 08:53:27;;;;;;;15.60;3.80;;;11.00;99.90;;;;;;5045368;28;20925;-40
2022/11/10 08:55:57;;;;;;;16.73;4.45;;;11.00;99.90;;;;;;5050711;28;20375;-38
2022/11/10 08:58:23;;;;;;;13.30;3.80;;;10.90;99.90;;;;;;5048235;28;20029;-40
2022/11/10 09:00:49;;;;;;;14.75;4.20;;;10.90;99.90;;;;;;5051353;28;20037;-41
2022/11/10 09:03:18;;;;;;;11.02;3.78;;;11.00;99.90;;;;;;5051287;28;20079;-42
2022/11/10 09:05:45;;;;;;;19.23;5.60;;;11.00;99.90;;;;;;5047751;28;20051;-41
2022/11/10 09:08:12;;;;;;;18.10;6.57;;;11.00;99.90;;;;;;5048707;28;20494;-40
2022/11/10 09:10:43;;;;;;;23.42;6.90;;;11.10;99.90;;;;;;5050784;28;20033;-44
2022/11/10 09:13:11;;;;;;;18.17;6.53;;;11.10;99.90;;;;;;5052910;28;20060;-42
2022/11/10 09:15:38;;;;;;;25.60;9.80;;;11.20;99.90;;;;;;5049972;28;20290;-46
2022/11/10 09:18:05;;;;;;;26.13;8.05;;;11.30;99.90;;;;;;5051578;28;20045;-41
2022/11/10 09:20:32;;;;;;;21.70;7.97;;;11.40;99.90;;;;;;5046529;28;20044;-40
2022/11/10 09:23:10;;;;;;;26.80;7.57;;;11.50;99.90;;;;;;5050236;28;20045;-42
2022/11/10 09:25:36;;;;;;;20.13;6.82;;;11.60;99.90;;;;;;5049392;28;20550;-40
2022/11/10 09:28:02;;;;;;;11.85;4.78;;;11.70;99.90;;;;;;5045375;28;20184;-39
2022/11/10 09:30:28;;;;;;;16.17;4.55;;;11.80;99.90;;;;;;5047756;28;20464;-41
2022/11/10 09:32:55;;;;;;;14.25;3.92;;;11.90;99.90;;;;;;5048833;28;20391;-45
2022/11/10 09:35:21;;;;;;;11.18;3.35;;;11.90;99.90;;;;;;5049617;28;20032;-39
2022/11/10 09:37:46;;;;;;;11.70;2.90;;;12.00;99.90;;;;;;5047565;28;20059;-39
2022/11/10 09:40:18;;;;;;;14.43;3.17;;;12.10;99.90;;;;;;5052056;28;20037;-41
2022/11/10 09:42:46;;;;;;;10.93;2.70;;;12.10;99.90;;;;;;5047031;28;20044;-41
2022/11/10 09:45:27;;;;;;;12.43;2.70;;;12.20;99.90;;;;;;5058948;28;20051;-40
2022/11/10 09:48:06;;;;;;;7.00;1.90;;;12.30;99.90;;;;;;5050654;28;20103;-40
2022/11/10 09:50:44;;;;;;;8.68;2.65;;;12.30;99.90;;;;;;5049790;28;20040;-42
2022/11/10 09:53:30;;;;;;;12.88;2.97;;;12.30;99.90;;;;;;5049696;28;20037;-48
2022/11/10 09:55:59;;;;;;;13.98;3.67;;;12.30;99.90;;;;;;5049102;28;20073;-48
2022/11/10 09:58:32;;;;;;;16.00;2.40;;;12.40;99.90;;;;;;5044111;28;20103;-44
2022/11/10 10:01:10;;;;;;;12.50;2.70;;;12.50;99.90;;;;;;5049768;28;20072;-45
2022/11/10 10:03:44;;;;;;;11.32;2.45;;;12.60;99.90;;;;;;5036872;28;20586;-41
2022/11/10 10:06:12;;;;;;;12.80;2.28;;;12.80;99.90;;;;;;5043640;28;20049;-41
2022/11/10 10:09:07;;;;;;;15.23;3.28;;;12.90;99.90;;;;;;5039257;28;20056;-41
2022/11/10 10:12:10;;;;;;;12.70;2.20;;;13.00;99.90;;;;;;5045249;28;20029;-39
2022/11/10 10:15:10;;;;;;;12.75;2.28;;;13.00;99.90;;;;;;5044957;28;20032;-39
2022/11/10 10:18:01;;;;;;;9.30;2.17;;;13.10;99.90;;;;;;5047129;28;20036;-41
2022/11/10 10:21:02;;;;;;;8.27;1.88;;;13.10;99.90;;;;;;5037550;28;20064;-41
2022/11/10 10:23:30;;;;;;;10.40;1.88;;;13.10;99.90;;;;;;5037295;28;20049;-41
2022/11/10 10:25:56;;;;;;;14.20;2.47;;;13.10;99.90;;;;;;5034318;28;20049;-41
2022/11/10 10:28:21;;;;;;;12.23;2.45;;;13.10;99.90;;;;;;5038665;28;20045;-44
2022/11/10 10:30:47;;;;;;;8.60;1.90;;;13.20;99.90;;;;;;5041452;28;21571;-41
2022/11/10 10:33:15;;;;;;;16.48;2.25;;;13.20;99.90;;;;;;5040653;28;20113;-44
2022/11/10 10:35:43;;;;;;;15.27;2.10;;;13.20;99.90;;;;;;5042029;28;20049;-47
2022/11/10 10:38:29;;;;;;;13.02;2.45;;;13.30;99.90;;;;;;5043247;28;20572;-42
2022/11/10 10:41:01;;;;;;;16.13;2.22;;;13.40;99.90;;;;;;5051166;28;20051;-46
2022/11/10 10:43:26;;;;;;;15.77;2.07;;;13.50;99.90;;;;;;5043216;28;20108;-45
2022/11/10 10:46:10;;;;;;;8.45;1.90;;;13.50;99.90;;;;;;5054207;28;20064;-42
2022/11/10 10:48:36;;;;;;;9.88;1.70;;;13.60;99.90;;;;;;5053575;28;20052;-42
2022/11/10 10:51:02;;;;;;;19.15;2.72;;;13.70;99.90;;;;;;5050331;28;20036;-42
2022/11/10 10:53:30;;;;;;;13.60;1.85;;;13.80;99.90;;;;;;5053755;28;20033;-43
2022/11/10 10:56:00;;;;;;;12.77;1.80;;;13.90;99.90;;;;;;5052632;28;20470;-44
2022/11/10 10:58:35;;;;;;;11.43;2.13;;;14.10;99.90;;;;;;5052518;28;20055;-51
2022/11/10 11:01:15;;;;;;;9.20;1.73;;;14.30;99.90;;;;;;5050291;28;20040;-45
2022/11/10 11:03:46;;;;;;;10.93;2.25;;;14.50;99.90;;;;;;5054096;28;20045;-62
2022/11/10 11:06:15;;;;;;;11.30;1.73;;;14.70;99.90;;;;;;5050308;28;20045;-39
2022/11/10 11:09:06;;;;;;;11.25;1.75;;;14.90;99.90;;;;;;5049253;28;20514;-41
2022/11/10 11:11:39;;;;;;;10.35;1.92;;;15.00;99.90;;;;;;5045898;28;20572;-41
2022/11/10 11:14:25;;;;;;;13.82;2.22;;;15.20;99.90;;;;;;5052417;28;20071;-41
2022/11/10 11:16:52;;;;;;;10.75;1.50;;;15.40;99.90;;;;;;5053949;28;20041;-43
2022/11/10 11:19:21;;;;;;;11.23;1.85;;;15.50;99.90;;;;;;5051900;28;20036;-43
2022/11/10 11:22:14;;;;;;;9.80;1.88;;;15.60;99.90;;;;;;5053139;28;20032;-40
2022/11/10 11:24:42;;;;;;;;;;;15.30;99.90;;;;;;5049105;28;20036;-40
2022/11/10 11:27:43;;;;;;;8.95;1.50;;;15.10;99.90;;;;;;5053873;28;19951;-41
2022/11/10 11:30:21;;;;;;;12.30;2.13;;;14.90;99.90;;;;;;5050128;28;20514;-39
2022/11/10 11:32:55;;;;;;;7.50;1.42;;;15.00;99.90;;;;;;5053339;28;20386;-47
2022/11/10 11:35:42;;;;;;;10.13;1.92;;;15.50;99.90;;;;;;5052713;28;20497;-42
2022/11/10 11:38:21;;;;;;;10.70;1.70;;;15.60;99.90;;;;;;5053366;28;20442;-42
2022/11/10 11:40:56;;;;;;;11.90;2.05;;;15.50;99.90;;;;;;5046308;28;20191;-43
2022/11/10 11:43:43;;;;;;;13.90;1.88;;;15.30;99.90;;;;;;5049397;28;20048;-39
2022/11/10 11:46:24;;;;;;;12.98;2.17;;;15.10;99.90;;;;;;5049106;28;20143;-42
2022/11/10 11:49:21;;;;;;;16.23;2.30;;;14.90;99.90;;;;;;5053112;28;20148;-42
2022/11/10 11:52:05;;;;;;;9.23;1.42;;;14.70;99.90;;;;;;5050317;28;20124;-42
2022/11/10 11:55:00;;;;;;;11.68;1.60;;;14.60;99.90;;;;;;5037774;28;20267;-41
2022/11/10 11:57:33;;;;;;;9.65;1.10;;;14.50;99.90;;;;;;5045415;28;20048;-41
2022/11/10 12:00:03;;;;;;;13.82;2.08;;;14.40;99.90;;;;;;5040999;28;20076;-43
2022/11/10 12:02:34;;;;;;;8.02;1.60;;;14.40;99.90;;;;;;5044373;28;20040;-41
2022/11/10 12:05:42;;;;;;;5.20;0.80;;;14.40;99.90;;;;;;5044151;28;20060;-44
2022/11/10 12:08:43;;;;;;;9.18;1.30;;;14.40;99.90;;;;;;5047492;28;20525;-45
2022/11/10 12:11:34;;;;;;;11.98;1.50;;;14.50;99.90;;;;;;5042979;28;20063;-43
2022/11/10 12:14:15;;;;;;;7.13;1.10;;;14.60;99.90;;;;;;5048542;28;20070;-40
2022/11/10 12:16:52;;;;;;;10.68;1.58;;;14.70;99.90;;;;;;5044030;28;20040;-42
2022/11/10 12:19:51;;;;;;;8.55;1.73;;;14.60;99.90;;;;;;5048737;28;20043;-40
2022/11/10 12:22:29;;;;;;;9.30;1.38;;;14.60;99.90;;;;;;5047879;28;20037;-46
2022/11/10 12:25:12;;;;;;;7.57;1.05;;;14.70;99.90;;;;;;5047115;28;20044;-44
2022/11/10 12:27:46;;;;;;;8.40;1.35;;;14.70;99.90;;;;;;5042599;28;20053;-40
2022/11/10 12:30:14;;;;;;;13.10;1.63;;;14.70;99.90;;;;;;5045378;28;20041;-40
2022/11/10 12:32:47;;;;;;;14.70;2.22;;;14.80;99.90;;;;;;5048031;28;20046;-44
2022/11/10 12:35:16;;;;;;;14.23;2.38;;;15.00;99.90;;;;;;5039276;28;20037;-41
2022/11/10 12:37:49;;;;;;;6.80;1.20;;;15.20;99.90;;;;;;5052245;28;20417;-41
2022/11/10 12:40:19;;;;;;;12.35;1.77;;;15.20;99.90;;;;;;5045086;28;20048;-41
2022/11/10 12:42:51;;;;;;;8.25;1.17;;;15.20;99.90;;;;;;5050529;28;20100;-41
2022/11/10 12:45:22;;;;;;;6.50;1.23;;;15.10;99.90;;;;;;5045776;28;20037;-43
2022/11/10 12:47:48;;;;;;;10.02;1.42;;;15.00;99.90;;;;;;5049650;28;20041;-42
2022/11/10 12:50:26;;;;;;;13.20;1.98;;;14.90;99.90;;;;;;5039969;28;20055;-43
2022/11/10 12:52:56;;;;;;;10.20;1.92;;;14.80;99.90;;;;;;5042051;28;20379;-41
2022/11/10 12:55:37;;;;;;;8.63;1.85;;;14.80;99.90;;;;;;5042174;28;20033;-41
2022/11/10 12:58:04;;;;;;;7.00;0.82;;;14.90;99.90;;;;;;5042679;28;20121;-40
2022/11/10 13:00:36;;;;;;;10.68;1.98;;;15.00;99.90;;;;;;5037389;28;20041;-42
2022/11/10 13:03:02;;;;;;;6.73;1.27;;;15.20;99.90;;;;;;5040307;28;20029;-41
2022/11/10 13:05:34;;;;;;;11.38;1.60;;;15.50;99.90;;;;;;5038775;28;20469;-40
2022/11/10 13:08:23;;;;;;;7.38;1.17;;;15.90;99.90;;;;;;5042575;28;20052;-41
2022/11/10 13:10:52;;;;;;;8.95;1.42;;;15.80;99.90;;;;;;5041388;28;20106;-42